Terminal Aerodrome Forecast
Issued by NWS Upton, NY

Home | Current Version | Previous Version | Text Only | Print | Product List | Glossary On
Versions: 1 2 3 4 5 6 7 8 9 10 11 12 13 14 15 16 17 18 19 20 21 22 23 24 25 26 27 28 29 30 31 32 33 34 35
000
FTUS41 KOKX 061815 AAA
TAFEWR
TAF AMD
KEWR 061815Z 0618/0724 06012G17KT 2SM -SHRADZ BR OVC008
     FM061900 07016G22KT 3SM -SHRADZ BR OVC008
     FM070000 07008KT 3SM -DZ BR OVC006
     FM070500 07005KT 2SM -DZ BR OVC006
     FM071200 07007KT 5SM BR OVC010
     FM071800 15006KT 5SM BR SCT007 BKN015=

USA.gov is the U.S. government's official web portal to all federal, state and local government web resources and services.